Time;durP1;ratioP1;P1;durP2;ratioP2;P2;SDS_P1;SDS_P2;PMS_P1;PMS_P2;Temp;Humidity;BMP_temperature;BMP_pressure;BME280_temperature;BME280_humidity;BME280_pressure;Samples;Min_cycle;Max_cycle;Signal;HPM_P1;HPM_P2
2023/03/04 00:01:28;;;;;;;17.60;2.90;;;6.90;99.90;;;;;;4849719;29;20193;-84
2023/03/04 00:03:59;;;;;;;15.07;2.40;;;5.30;99.90;;;;;;4843493;29;20058;-84
2023/03/04 00:06:44;;;;;;;15.83;2.73;;;6.70;99.90;;;;;;4860848;29;20124;-84
2023/03/04 00:16:56;;;;;;;15.25;2.88;;;5.20;99.90;;;;;;4859973;29;20045;-84
2023/03/04 00:19:40;;;;;;;15.48;2.50;;;5.40;99.90;;;;;;4844622;29;20061;-84
2023/03/04 00:22:09;;;;;;;16.98;3.05;;;5.80;99.90;;;;;;4843746;29;20109;-84
2023/03/04 00:28:05;;;;;;;15.67;2.47;;;4.60;99.90;;;;;;4864788;23;20062;-84
2023/03/04 00:30:49;;;;;;;11.47;2.53;;;5.50;99.90;;;;;;4838750;29;20045;-84
2023/03/04 00:33:18;;;;;;;14.17;2.40;;;6.50;99.90;;;;;;4868572;29;20045;-84
2023/03/04 00:35:44;;;;;;;17.77;2.60;;;6.20;99.90;;;;;;4844786;29;20047;-84
2023/03/04 00:38:10;;;;;;;14.67;2.53;;;4.80;99.90;;;;;;4844740;29;20057;-85
2023/03/04 00:40:35;;;;;;;15.80;3.00;;;5.10;99.90;;;;;;4861568;29;20054;-83
2023/03/04 00:43:10;;;;;;;13.33;2.20;;;6.20;99.90;;;;;;4845261;29;20052;-84
2023/03/04 00:45:45;;;;;;;11.73;2.50;;;6.60;99.90;;;;;;4844281;29;20057;-84
2023/03/04 00:48:11;;;;;;;13.07;2.50;;;6.50;99.90;;;;;;4861126;29;20046;-84
2023/03/04 00:50:37;;;;;;;11.17;2.23;;;6.60;99.90;;;;;;4844073;29;20056;-84
2023/03/04 00:53:25;;;;;;;14.93;2.50;;;6.40;99.90;;;;;;4843641;29;20041;-84
2023/03/04 00:56:09;;;;;;;16.47;2.47;;;6.00;99.90;;;;;;4843997;29;20426;-84
2023/03/04 00:58:50;;;;;;;12.85;2.15;;;5.10;99.90;;;;;;4843448;29;20054;-84
2023/03/04 01:01:18;;;;;;;14.77;2.90;;;5.10;99.90;;;;;;4860451;29;20074;-84
2023/03/04 01:03:47;;;;;;;14.47;2.50;;;6.10;99.90;;;;;;4854747;23;20544;-84
2023/03/04 01:06:15;;;;;;;13.57;2.50;;;5.40;99.90;;;;;;4830827;29;20042;-84
2023/03/04 01:08:41;;;;;;;13.53;2.37;;;5.10;99.90;;;;;;4843363;29;20092;-84
2023/03/04 01:11:07;;;;;;;17.50;3.07;;;4.90;99.90;;;;;;4860611;29;20469;-84
2023/03/04 01:13:39;;;;;;;14.50;2.63;;;5.30;99.90;;;;;;4843233;29;20049;-83
2023/03/04 01:16:11;;;;;;;11.70;2.80;;;4.60;99.90;;;;;;4843843;29;20045;-84
2023/03/04 01:18:46;;;;;;;13.67;2.40;;;5.00;99.90;;;;;;4843343;29;20406;-84
2023/03/04 01:21:20;;;;;;;13.10;2.40;;;5.30;99.90;;;;;;4858362;29;20052;-84
2023/03/04 01:24:21;;;;;;;11.60;2.47;;;5.00;99.90;;;;;;4843842;29;20085;-84
2023/03/04 01:29:49;;;;;;;12.10;2.43;;;5.20;99.90;;;;;;4850288;23;20062;-84
2023/03/04 01:32:14;;;;;;;11.97;2.60;;;6.80;99.90;;;;;;4838448;29;20054;-84
2023/03/04 01:34:40;;;;;;;12.37;2.50;;;4.40;99.90;;;;;;4843356;29;20135;-84
2023/03/04 01:37:10;;;;;;;17.40;2.67;;;4.60;99.90;;;;;;4859854;29;20041;-84
2023/03/04 01:52:51;;;;;;;13.73;2.50;;;5.20;99.90;;;;;;4844067;29;20506;-85
2023/03/04 01:55:26;;;;;;;14.57;2.60;;;5.00;99.90;;;;;;4844449;29;20529;-85
2023/03/04 01:58:20;;;;;;;12.93;2.43;;;5.50;99.90;;;;;;4828895;29;20053;-84
2023/03/04 02:01:36;;;;;;;12.07;2.60;;;4.90;99.90;;;;;;4851123;23;20050;-84
2023/03/04 02:04:03;;;;;;;11.23;2.20;;;5.30;99.90;;;;;;4824105;29;20062;-86
2023/03/04 02:06:29;;;;;;;12.60;2.57;;;5.10;99.90;;;;;;4838666;29;20054;-84
2023/03/04 02:08:54;;;;;;;13.63;2.87;;;4.20;99.90;;;;;;4848264;29;20048;-84
2023/03/04 02:11:34;;;;;;;15.90;2.20;;;5.00;99.90;;;;;;4876949;23;20415;-84
2023/03/04 02:14:25;;;;;;;12.57;2.23;;;5.00;99.90;;;;;;4864843;29;20088;-83
2023/03/04 02:16:57;;;;;;;13.53;2.53;;;5.50;99.90;;;;;;4846308;29;20077;-85
2023/03/04 02:20:07;;;;;;;10.87;2.10;;;6.40;99.90;;;;;;4863551;29;20056;-84
2023/03/04 02:23:18;;;;;;;16.30;2.60;;;5.70;99.90;;;;;;4833457;29;20097;-84
2023/03/04 02:26:27;;;;;;;10.70;2.10;;;4.50;99.90;;;;;;4828049;29;20092;-84
2023/03/04 02:29:13;;;;;;;10.97;2.43;;;5.10;99.90;;;;;;4828415;29;20406;-85
2023/03/04 02:31:52;;;;;;;15.97;3.00;;;5.00;99.90;;;;;;4837620;24;20434;-85
2023/03/04 02:34:58;;;;;;;12.30;2.60;;;5.00;99.90;;;;;;4863267;29;20088;-84
2023/03/04 02:37:34;;;;;;;12.97;3.10;;;4.60;99.90;;;;;;4870506;23;20058;-84
2023/03/04 02:40:00;;;;;;;24.60;2.77;;;5.20;99.90;;;;;;4827762;29;20495;-84
2023/03/04 02:53:32;;;;;;;10.70;2.60;;;5.20;99.90;;;;;;4860764;29;20086;-84
2023/03/04 02:56:19;;;;;;;11.97;2.33;;;5.20;99.90;;;;;;4846186;29;20045;-84
2023/03/04 02:59:07;;;;;;;13.87;2.43;;;6.30;99.90;;;;;;4851851;23;20101;-84
2023/03/04 03:01:33;;;;;;;8.83;2.17;;;5.90;99.90;;;;;;4829572;29;20060;-84
2023/03/04 03:04:04;;;;;;;11.63;2.27;;;5.50;99.90;;;;;;4845403;29;20049;-84
2023/03/04 03:06:30;;;;;;;15.50;2.10;;;5.20;99.90;;;;;;4844227;29;20098;-84
2023/03/04 03:08:58;;;;;;;11.80;2.40;;;5.00;99.90;;;;;;4861298;29;20045;-84
2023/03/04 03:11:42;;;;;;;12.73;2.27;;;5.90;99.90;;;;;;4845448;29;20068;-84
2023/03/04 03:14:17;;;;;;;14.88;2.35;;;6.50;99.90;;;;;;4856608;29;20046;-84
2023/03/04 03:16:46;;;;;;;13.80;2.43;;;4.60;99.90;;;;;;4845461;29;20405;-84
2023/03/04 03:19:18;;;;;;;14.90;2.40;;;5.10;99.90;;;;;;4845504;29;20493;-84
2023/03/04 03:21:46;;;;;;;12.50;2.10;;;4.60;99.90;;;;;;4860723;29;20291;-84
2023/03/04 03:24:27;;;;;;;11.00;2.30;;;4.40;99.90;;;;;;4846099;29;20053;-85
2023/03/04 03:27:02;;;;;;;12.50;2.13;;;6.40;99.90;;;;;;4864158;29;20056;-85
2023/03/04 03:29:42;;;;;;;14.13;2.40;;;4.00;99.90;;;;;;4863071;29;20049;-84
2023/03/04 03:32:23;;;;;;;10.73;2.37;;;4.40;99.90;;;;;;4846773;29;20117;-84
2023/03/04 03:34:56;;;;;;;14.67;2.57;;;6.50;99.90;;;;;;4855057;29;20094;-84
2023/03/04 03:38:17;;;;;;;18.23;2.50;;;4.70;99.90;;;;;;4863870;29;20049;-84
2023/03/04 03:48:35;;;;;;;11.73;2.20;;;4.80;99.90;;;;;;4861746;29;20093;-84
2023/03/04 03:51:10;;;;;;;10.50;2.10;;;3.90;99.90;;;;;;4845038;29;20046;-84
2023/03/04 03:53:47;;;;;;;12.63;2.50;;;4.80;99.90;;;;;;4844587;29;20454;-84
2023/03/04 03:56:28;;;;;;;12.13;2.30;;;4.40;99.90;;;;;;4861671;29;20041;-84
2023/03/04 03:59:56;;;;;;;14.43;2.77;;;6.40;99.90;;;;;;4844408;29;20068;-84
2023/03/04 04:03:13;;;;;;;11.50;2.73;;;4.10;99.90;;;;;;4844012;29;20557;-84
2023/03/04 04:06:03;;;;;;;13.13;2.20;;;3.90;99.90;;;;;;4844470;29;20475;-85
2023/03/04 04:08:32;;;;;;;16.40;2.40;;;4.80;99.90;;;;;;4843486;29;20566;-85
2023/03/04 04:11:13;;;;;;;10.53;2.40;;;3.90;99.90;;;;;;4845365;29;20053;-84
2023/03/04 04:13:45;;;;;;;12.53;2.20;;;5.30;99.90;;;;;;4861011;29;20053;-85
2023/03/04 04:16:11;;;;;;;12.93;2.17;;;4.40;99.90;;;;;;4844801;29;20059;-84
2023/03/04 04:18:52;;;;;;;12.23;2.90;;;4.20;99.90;;;;;;4861293;29;20505;-85
2023/03/04 04:21:36;;;;;;;13.20;2.17;;;4.30;99.90;;;;;;4861316;29;20041;-84
2023/03/04 04:24:25;;;;;;;17.58;2.35;;;4.90;99.90;;;;;;4843635;29;20129;-85
2023/03/04 04:26:59;;;;;;;16.80;2.50;;;4.80;99.90;;;;;;4875300;23;20494;-84
2023/03/04 04:30:16;;;;;;;10.63;2.23;;;6.40;99.90;;;;;;4841895;29;20050;-84
2023/03/04 04:32:41;;;;;;;10.77;2.17;;;5.20;99.90;;;;;;4842095;29;20110;-85
2023/03/04 04:35:16;;;;;;;16.00;2.70;;;4.80;99.90;;;;;;4826675;29;20046;-84
2023/03/04 04:37:45;;;;;;;12.13;2.30;;;4.80;99.90;;;;;;4824923;29;20045;-84
2023/03/04 04:40:15;;;;;;;9.60;2.33;;;4.60;99.90;;;;;;4842554;29;20136;-84
2023/03/04 04:42:41;;;;;;;13.80;2.73;;;4.70;99.90;;;;;;4842382;29;20098;-85
2023/03/04 04:57:52;;;;;;;10.87;2.20;;;4.80;99.90;;;;;;4858037;29;20053;-84
2023/03/04 05:00:21;;;;;;;10.70;2.10;;;4.60;99.90;;;;;;4844386;29;20053;-84
2023/03/04 05:03:27;;;;;;;12.87;2.73;;;4.70;99.90;;;;;;4866928;29;20042;-85
2023/03/04 05:05:53;;;;;;;10.47;2.00;;;4.20;99.90;;;;;;4872657;29;20077;-84
2023/03/04 05:08:36;;;;;;;8.37;2.00;;;4.50;99.90;;;;;;4885606;29;20105;-84
2023/03/04 05:11:21;;;;;;;11.80;2.35;;;4.30;99.90;;;;;;4879527;29;20056;-84
2023/03/04 05:13:48;;;;;;;9.67;2.10;;;6.00;99.90;;;;;;4878512;29;20041;-84
2023/03/04 05:16:15;;;;;;;12.80;2.40;;;4.30;99.90;;;;;;4859876;29;20057;-85
2023/03/04 05:18:41;;;;;;;12.30;2.20;;;4.70;99.90;;;;;;4843910;29;20046;-84
2023/03/04 05:21:16;;;;;;;16.43;2.30;;;4.50;99.90;;;;;;4843420;29;20052;-84
2023/03/04 05:27:17;;;;;;;13.37;2.40;;;4.70;99.90;;;;;;4885912;23;20054;-84
2023/03/04 05:39:25;;;;;;;12.87;2.20;;;4.60;99.90;;;;;;5812262;23;20054;-85
2023/03/04 05:41:51;;;;;;;12.23;2.37;;;4.60;99.90;;;;;;4809181;29;20069;-84
2023/03/04 05:44:16;;;;;;;13.10;3.07;;;4.50;99.90;;;;;;4809846;29;20042;-84
2023/03/04 05:46:51;;;;;;;10.43;2.47;;;4.60;99.90;;;;;;4809386;29;20060;-84
2023/03/04 05:58:27;;;;;;;13.47;2.63;;;3.80;99.90;;;;;;4828507;29;20434;-85
2023/03/04 06:00:53;;;;;;;12.27;2.30;;;4.30;99.90;;;;;;4844791;29;20149;-85
2023/03/04 06:03:21;;;;;;;16.90;2.80;;;5.10;99.90;;;;;;4830029;29;20082;-85
2023/03/04 06:05:47;;;;;;;12.60;2.73;;;5.00;99.90;;;;;;4829105;29;20057;-84
2023/03/04 06:08:13;;;;;;;16.60;2.90;;;4.20;99.90;;;;;;4844239;29;20046;-84
2023/03/04 06:10:40;;;;;;;13.60;2.63;;;4.10;99.90;;;;;;4845286;29;20048;-85
2023/03/04 06:13:27;;;;;;;13.03;2.50;;;4.10;99.90;;;;;;4845487;29;20038;-85
2023/03/04 06:16:05;;;;;;;15.63;2.90;;;5.80;99.90;;;;;;4827562;29;20125;-84
2023/03/04 06:18:46;;;;;;;14.30;3.00;;;4.40;99.90;;;;;;4844280;29;20065;-85
2023/03/04 06:21:14;;;;;;;13.63;2.60;;;3.90;99.90;;;;;;4844944;29;20084;-84
2023/03/04 06:23:46;;;;;;;15.43;2.87;;;4.60;99.90;;;;;;4842635;29;20054;-84
2023/03/04 06:26:21;;;;;;;16.23;3.00;;;5.00;99.90;;;;;;4853405;29;20050;-84
2023/03/04 06:28:50;;;;;;;12.27;2.50;;;4.60;99.90;;;;;;4838490;29;20045;-85
2023/03/04 06:31:15;;;;;;;17.13;2.97;;;4.70;99.90;;;;;;4846624;29;20053;-84
2023/03/04 06:33:45;;;;;;;15.17;3.13;;;4.00;99.90;;;;;;4828356;29;20099;-84
2023/03/04 06:39:14;;;;;;;16.00;2.70;;;5.20;99.90;;;;;;4911070;23;20057;-84
2023/03/04 06:41:44;;;;;;;15.47;3.03;;;3.90;99.90;;;;;;4883427;24;20118;-84
2023/03/04 06:44:15;;;;;;;14.63;3.10;;;4.10;99.90;;;;;;4861681;29;20117;-84
2023/03/04 06:46:42;;;;;;;13.83;3.00;;;6.00;99.90;;;;;;4854887;29;20073;-84
2023/03/04 06:49:07;;;;;;;14.57;3.10;;;5.30;99.90;;;;;;4847201;29;20052;-84
2023/03/04 06:51:36;;;;;;;12.53;2.80;;;4.10;99.90;;;;;;4845915;29;20426;-84
2023/03/04 06:54:14;;;;;;;16.77;3.33;;;3.90;99.90;;;;;;4862612;29;20414;-84
2023/03/04 07:01:15;;;;;;;14.70;2.87;;;4.40;99.90;;;;;;4903319;23;20182;-84
2023/03/04 07:04:32;;;;;;;13.30;3.07;;;3.40;99.90;;;;;;4840211;29;20061;-85
2023/03/04 07:06:57;;;;;;;20.30;3.30;;;3.70;99.90;;;;;;4862253;29;20089;-85
2023/03/04 07:09:41;;;;;;;10.97;3.10;;;5.10;99.90;;;;;;4846046;29;20092;-84
2023/03/04 07:15:47;;;;;;;12.53;3.20;;;4.20;99.90;;;;;;4857052;23;20061;-84
2023/03/04 07:18:23;;;;;;;14.73;3.13;;;4.40;99.90;;;;;;4843387;29;20509;-84
2023/03/04 07:24:52;;;;;;;10.93;2.60;;;4.80;99.90;;;;;;4847363;29;20090;-90
2023/03/04 07:37:05;;;;;;;13.73;2.87;;;5.00;99.90;;;;;;5528375;23;20141;-92
2023/03/04 07:39:40;;;;;;;12.27;2.40;;;6.30;99.90;;;;;;4838019;29;20152;-91
2023/03/04 07:42:18;;;;;;;9.77;2.40;;;5.40;99.90;;;;;;4845690;29;20509;-91
2023/03/04 07:47:34;;;;;;;8.17;2.40;;;4.90;99.90;;;;;;4825416;23;20051;-90
2023/03/04 08:02:24;;;;;;;8.97;2.50;;;5.10;99.90;;;;;;4939018;23;20142;-92
2023/03/04 08:16:49;;;;;;;11.20;2.30;;;5.50;99.90;;;;;;5531561;23;20097;-92
2023/03/04 08:19:15;;;;;;;8.97;1.90;;;5.70;99.90;;;;;;4833818;29;20049;-92
2023/03/04 08:21:43;;;;;;;8.33;2.00;;;5.60;99.90;;;;;;4871855;23;20024;-91
2023/03/04 08:24:13;;;;;;;7.70;1.57;;;5.40;99.90;;;;;;4826924;29;20050;-91
2023/03/04 08:26:53;;;;;;;13.73;2.80;;;6.30;99.90;;;;;;4825654;29;20046;-91
2023/03/04 08:29:29;;;;;;;13.43;4.37;;;5.30;99.90;;;;;;4842722;29;20133;-94
2023/03/04 08:35:40;;;;;;;9.40;1.90;;;5.40;99.90;;;;;;4815164;23;20072;-96
2023/03/04 08:44:52;;;;;;;10.40;1.93;;;5.30;99.90;;;;;;5092973;24;20065;-96
2023/03/04 08:48:00;;;;;;;10.60;2.17;;;6.20;99.90;;;;;;4817377;29;20129;-96
2023/03/04 08:50:28;;;;;;;14.00;2.63;;;6.40;99.90;;;;;;4846060;29;20085;-96
2023/03/04 08:52:53;;;;;;;16.57;2.30;;;6.00;99.90;;;;;;4843347;29;20057;-96
2023/03/04 08:55:41;;;;;;;16.63;2.97;;;6.30;99.90;;;;;;4842697;24;20060;-96
2023/03/04 09:01:16;;;;;;;14.07;2.37;;;5.20;99.90;;;;;;4787518;29;20061;-96
2023/03/04 09:06:42;;;;;;;10.47;2.50;;;5.10;99.90;;;;;;4839380;23;20053;-89
2023/03/04 09:09:08;;;;;;;12.73;2.80;;;5.30;99.90;;;;;;4818559;29;20063;-92
2023/03/04 09:11:43;;;;;;;14.90;3.23;;;4.40;99.90;;;;;;4793980;29;20059;-92
2023/03/04 09:16:54;;;;;;;13.53;2.30;;;5.10;99.90;;;;;;4857354;29;20057;-91
2023/03/04 09:19:41;;;;;;;14.43;2.70;;;5.10;99.90;;;;;;4855831;24;20058;-94
2023/03/04 09:34:21;;;;;;;17.03;2.60;;;5.90;99.90;;;;;;5337533;24;20570;-91
2023/03/04 09:36:47;;;;;;;21.33;3.00;;;5.70;99.90;;;;;;4834983;24;20042;-91
2023/03/04 09:45:14;;;;;;;16.20;3.50;;;5.90;99.90;;;;;;4960857;23;20110;-88
2023/03/04 09:51:48;;;;;;;22.43;5.60;;;5.70;99.90;;;;;;4847414;23;20111;-95
2023/03/04 09:55:07;;;;;;;22.02;4.07;;;6.20;99.90;;;;;;4858683;24;20141;-94
2023/03/04 09:57:52;;;;;;;18.83;3.63;;;6.30;99.90;;;;;;4820636;29;20448;-95
2023/03/04 10:00:22;;;;;;;17.80;3.73;;;6.70;99.90;;;;;;4815903;29;20050;-94
2023/03/04 10:03:12;;;;;;;20.30;4.47;;;6.90;99.90;;;;;;4823671;23;20129;-93
2023/03/04 10:06:08;;;;;;;19.87;4.50;;;6.10;99.90;;;;;;4826172;23;20103;-94
2023/03/04 10:11:58;;;;;;;19.23;3.47;;;6.20;99.90;;;;;;4816765;29;20054;-93
2023/03/04 10:21:40;;;;;;;17.80;3.10;;;6.50;99.90;;;;;;5678417;24;20284;-93
2023/03/04 10:24:31;;;;;;;16.73;3.37;;;5.80;99.90;;;;;;4813829;29;20061;-94
2023/03/04 10:27:17;;;;;;;14.93;2.80;;;7.20;99.90;;;;;;4838757;24;20066;-94
2023/03/04 10:30:33;;;;;;;13.43;2.60;;;7.80;99.90;;;;;;4836740;29;20252;-94
2023/03/04 10:32:59;;;;;;;13.73;2.60;;;6.60;99.90;;;;;;5057121;23;20054;-91
2023/03/04 10:38:07;;;;;;;12.73;2.30;;;6.20;99.90;;;;;;4872150;23;20038;-93
2023/03/04 10:40:44;;;;;;;11.00;2.30;;;6.20;99.90;;;;;;4783657;29;20057;-95
2023/03/04 10:43:23;;;;;;;13.00;1.97;;;6.50;99.90;;;;;;4814324;29;20099;-94
2023/03/04 11:25:31;;;;;;;17.27;3.00;;;6.10;99.90;;;;;;5441654;24;20118;-91
2023/03/04 11:28:24;;;;;;;15.90;3.13;;;5.40;99.90;;;;;;4829778;29;20396;-95
2023/03/04 11:30:53;;;;;;;17.03;3.00;;;4.90;99.90;;;;;;4839246;24;20062;-94
2023/03/04 11:37:16;;;;;;;14.90;2.70;;;5.90;99.90;;;;;;4806184;29;20066;-92
2023/03/04 11:39:53;;;;;;;15.70;2.60;;;6.80;99.90;;;;;;4841417;24;20148;-94
2023/03/04 11:43:13;;;;;;;13.13;2.80;;;6.10;99.90;;;;;;4832083;29;20054;-93
2023/03/04 11:46:12;;;;;;;14.60;2.70;;;5.80;99.90;;;;;;4833713;29;20049;-93
2023/03/04 12:07:56;;;;;;;13.47;2.80;;;7.10;99.90;;;;;;4846668;24;20482;-90
2023/03/04 12:32:16;;;;;;;14.83;2.60;;;6.80;99.90;;;;;;4850318;29;20062;-92
2023/03/04 12:38:22;;;;;;;;;;;;;;;;;;;;;
2023/03/04 12:41:37;;;;;;;15.20;2.87;;;8.40;99.90;;;;;;4809410;29;20212;-92
2023/03/04 12:47:10;;;;;;;12.00;2.22;;;8.20;99.90;;;;;;4851481;23;20070;-92
2023/03/04 12:50:37;;;;;;;12.67;2.40;;;7.70;99.90;;;;;;4780045;29;20136;-91
2023/03/04 12:53:24;;;;;;;8.90;1.87;;;8.00;99.90;;;;;;4790760;29;20066;-91
2023/03/04 13:06:03;;;;;;;10.67;2.47;;;7.60;99.90;;;;;;5585780;23;20031;-88
2023/03/04 13:12:04;;;;;;;11.53;2.30;;;7.60;99.90;;;;;;4907931;23;20201;-90
2023/03/04 13:18:55;;;;;;;16.27;2.57;;;7.10;99.90;;;;;;5080750;24;20007;-91
2023/03/04 13:22:08;;;;;;;11.03;2.37;;;7.60;99.90;;;;;;4844795;29;20053;-92
2023/03/04 13:40:37;;;;;;;13.77;2.40;;;7.20;99.90;;;;;;4949756;24;20111;-85
2023/03/04 13:43:48;;;;;;;15.67;2.57;;;7.00;99.90;;;;;;4846896;23;20049;-90
2023/03/04 13:47:01;;;;;;;17.63;3.03;;;6.30;99.90;;;;;;4836777;29;20042;-91
2023/03/04 13:49:39;;;;;;;13.93;2.60;;;7.00;99.90;;;;;;4813994;29;20560;-92
2023/03/04 13:52:36;;;;;;;13.17;2.77;;;8.30;99.90;;;;;;4821310;29;20047;-89
2023/03/04 13:55:43;;;;;;;12.33;2.67;;;7.00;99.90;;;;;;4829067;29;20066;-92
2023/03/04 14:03:50;;;;;;;10.60;2.33;;;7.10;99.90;;;;;;4883741;23;20057;-92
2023/03/04 14:07:05;;;;;;;14.80;2.80;;;7.60;99.90;;;;;;4852416;29;20062;-93
2023/03/04 14:15:51;;;;;;;11.57;2.40;;;7.30;99.90;;;;;;5035670;24;20072;-89
2023/03/04 14:28:19;;;;;;;10.90;2.07;;;5.80;99.90;;;;;;4836983;29;20070;-91
2023/03/04 14:31:04;;;;;;;12.03;2.90;;;5.80;99.90;;;;;;4818685;24;20069;-90
2023/03/04 14:33:49;;;;;;;;;;;5.80;99.90;;;;;;4862415;29;20121;-90
2023/03/04 14:36:22;;;;;;;11.07;2.10;;;5.30;99.90;;;;;;4863515;29;19931;-90
2023/03/04 14:39:13;;;;;;;9.40;2.00;;;6.20;99.90;;;;;;4845757;29;20105;-90
2023/03/04 14:41:46;;;;;;;14.10;2.20;;;6.30;99.90;;;;;;4862105;29;20298;-90
2023/03/04 14:44:43;;;;;;;8.90;2.00;;;6.90;99.90;;;;;;4832919;29;20098;-91
2023/03/04 14:47:47;;;;;;;11.17;2.23;;;6.30;99.90;;;;;;4846972;29;20055;-94
2023/03/04 15:14:44;;;;;;;13.27;2.70;;;7.30;99.90;;;;;;5518115;24;20085;-96
2023/03/04 15:18:15;;;;;;;13.37;2.50;;;6.80;99.90;;;;;;4837340;29;20054;-90
2023/03/04 15:21:21;;;;;;;11.98;2.40;;;6.10;99.90;;;;;;4794375;29;20551;-91
2023/03/04 15:24:09;;;;;;;10.97;2.80;;;6.50;99.90;;;;;;4798696;29;20051;-90
2023/03/04 15:26:55;;;;;;;12.83;2.50;;;5.90;99.90;;;;;;4801636;29;20131;-91
2023/03/04 15:29:24;;;;;;;13.90;3.17;;;6.70;99.90;;;;;;4771583;29;20059;-91
2023/03/04 15:32:16;;;;;;;10.87;2.50;;;6.60;99.90;;;;;;4797561;29;20051;-89
2023/03/04 15:34:56;;;;;;;12.57;3.03;;;6.50;99.90;;;;;;4789358;29;20111;-91
2023/03/04 15:38:15;;;;;;;13.57;2.63;;;6.70;99.90;;;;;;4765070;30;20095;-89
2023/03/04 15:40:58;;;;;;;16.07;3.90;;;5.40;99.90;;;;;;4819470;24;20056;-88
2023/03/04 15:44:38;;;;;;;12.90;2.53;;;5.10;99.90;;;;;;4891457;24;20046;-91
2023/03/04 17:10:55;;;;;;;12.10;2.80;;;4.60;99.90;;;;;;5470865;23;20605;-89
2023/03/04 17:20:54;;;;;;;14.63;2.27;;;4.40;99.90;;;;;;5028751;23;20034;-90
2023/03/04 18:04:41;;;;;;;;;;;;;;;;;;;;;
2023/03/04 18:08:06;;;;;;;13.50;2.40;;;3.70;99.90;;;;;;4842704;23;20287;-89
2023/03/04 18:10:38;;;;;;;13.20;2.77;;;5.30;99.90;;;;;;4808644;29;20144;-89
2023/03/04 18:13:08;;;;;;;13.37;2.57;;;3.90;99.90;;;;;;4837698;29;20459;-88
2023/03/04 18:16:02;;;;;;;13.60;2.80;;;4.20;99.90;;;;;;4826414;29;20050;-89
2023/03/04 18:22:00;;;;;;;13.30;3.30;;;5.20;99.90;;;;;;5100629;23;20541;-89
2023/03/04 18:31:22;;;;;;;10.57;2.50;;;4.20;99.90;;;;;;4836170;29;20121;-87
2023/03/04 18:33:48;;;;;;;14.80;3.10;;;3.30;99.90;;;;;;4844395;29;20117;-87
2023/03/04 19:04:40;;;;;;;13.63;2.90;;;4.00;99.90;;;;;;5162216;23;20120;-84
2023/03/04 19:07:08;;;;;;;13.57;3.00;;;4.60;99.90;;;;;;4827688;29;20106;-83
2023/03/04 19:16:11;;;;;;;21.17;9.50;;;4.50;99.90;;;;;;4763216;29;20629;-84
2023/03/04 19:18:42;;;;;;;24.07;9.93;;;3.80;99.90;;;;;;4811497;29;20066;-84
2023/03/04 19:27:13;;;;;;;21.80;7.40;;;3.20;99.90;;;;;;4850202;29;19923;-84
2023/03/04 19:29:58;;;;;;;33.20;14.37;;;4.00;99.90;;;;;;4853113;29;20049;-84
2023/03/04 19:32:39;;;;;;;26.07;10.87;;;5.50;99.90;;;;;;4861044;29;20510;-84
2023/03/04 19:35:05;;;;;;;17.30;6.33;;;3.50;99.90;;;;;;4838826;29;20057;-84
2023/03/04 19:37:31;;;;;;;19.50;5.17;;;3.80;99.90;;;;;;4843902;29;20037;-83
2023/03/04 19:43:44;;;;;;;25.47;10.03;;;4.60;99.90;;;;;;4850550;29;20413;-84
2023/03/04 19:46:31;;;;;;;37.37;15.60;;;3.80;99.90;;;;;;4844000;29;20054;-84
2023/03/04 19:48:56;;;;;;;35.60;14.97;;;4.20;99.90;;;;;;4834861;29;20053;-85
2023/03/04 19:51:25;;;;;;;39.97;17.07;;;3.40;99.90;;;;;;4840732;29;20077;-84
2023/03/04 19:54:43;;;;;;;36.80;14.67;;;4.40;99.90;;;;;;4828519;29;20042;-85
2023/03/04 20:00:58;;;;;;;;;;;;;;;;;;;;;
2023/03/04 20:03:52;;;;;;;21.17;7.50;;;3.70;99.90;;;;;;4813663;29;20045;-84
2023/03/04 20:06:45;;;;;;;15.77;5.90;;;5.00;99.90;;;;;;4834083;29;20038;-84
2023/03/04 20:09:30;;;;;;;16.43;5.23;;;2.80;99.90;;;;;;4782776;29;20074;-84
2023/03/04 20:12:20;;;;;;;15.10;4.93;;;3.60;99.90;;;;;;4850908;24;20119;-85
2023/03/04 20:19:29;;;;;;;16.07;5.37;;;4.30;99.90;;;;;;4845324;23;20059;-84
2023/03/04 20:22:05;;;;;;;;;;;;;;;;;;;;;
2023/03/04 20:25:17;;;;;;;12.60;5.23;;;4.50;99.90;;;;;;4792496;29;20046;-84
2023/03/04 20:27:45;;;;;;;19.00;7.73;;;2.00;99.90;;;;;;4820548;29;20058;-84
2023/03/04 20:30:17;;;;;;;11.60;2.90;;;3.00;99.90;;;;;;4792719;29;20053;-83
2023/03/04 20:32:47;;;;;;;11.63;2.70;;;3.40;99.90;;;;;;4789048;29;20054;-84
2023/03/04 20:35:15;;;;;;;13.83;2.70;;;3.40;99.90;;;;;;4791627;29;20039;-83
2023/03/04 20:37:41;;;;;;;17.17;2.80;;;3.10;99.90;;;;;;4805495;29;20058;-84
2023/03/04 20:40:26;;;;;;;9.70;2.30;;;3.50;99.90;;;;;;4794936;29;20043;-84
2023/03/04 20:42:52;;;;;;;13.17;2.57;;;3.50;99.90;;;;;;4805913;29;20058;-83
2023/03/04 20:45:31;;;;;;;15.00;2.73;;;4.30;99.90;;;;;;4796547;29;20043;-83
2023/03/04 20:47:59;;;;;;;15.17;4.90;;;3.20;99.90;;;;;;4803273;29;20047;-83
2023/03/04 20:50:25;;;;;;;13.17;3.20;;;5.00;99.90;;;;;;4805085;29;20050;-83
2023/03/04 20:52:51;;;;;;;20.97;8.27;;;3.40;99.90;;;;;;4804207;29;20415;-82
2023/03/04 20:55:17;;;;;;;13.80;3.43;;;3.80;99.90;;;;;;4796785;29;20035;-83
2023/03/04 20:57:53;;;;;;;19.27;7.30;;;3.40;99.90;;;;;;4804575;29;20734;-83
2023/03/04 21:00:44;;;;;;;32.40;14.97;;;5.40;99.90;;;;;;4793818;29;20050;-83
2023/03/04 21:03:47;;;;;;;36.17;19.67;;;3.80;99.90;;;;;;4805082;29;20158;-83
2023/03/04 21:06:17;;;;;;;20.17;7.90;;;2.90;99.90;;;;;;4798310;29;20073;-83
2023/03/04 21:08:43;;;;;;;31.50;13.87;;;3.20;99.90;;;;;;4804471;29;20055;-83
2023/03/04 21:11:44;;;;;;;15.73;5.93;;;2.90;99.90;;;;;;4789295;29;20043;-83
2023/03/04 21:14:38;;;;;;;14.17;3.30;;;2.90;99.90;;;;;;4818166;29;20051;-82
2023/03/04 21:17:04;;;;;;;12.38;3.10;;;3.60;99.90;;;;;;4823162;29;20050;-82
2023/03/04 21:19:42;;;;;;;14.07;3.20;;;4.10;99.90;;;;;;4808968;29;20125;-82
2023/03/04 21:22:15;;;;;;;11.90;2.70;;;4.40;99.90;;;;;;4814521;29;20551;-83
2023/03/04 21:24:42;;;;;;;11.63;2.72;;;3.30;99.90;;;;;;4803156;29;20061;-82
2023/03/04 21:27:15;;;;;;;13.33;2.73;;;3.30;99.90;;;;;;4812243;29;20082;-83
2023/03/04 21:29:48;;;;;;;15.43;2.80;;;3.40;99.90;;;;;;4780034;29;20086;-84
2023/03/04 21:32:35;;;;;;;14.77;3.00;;;3.50;99.90;;;;;;4800402;29;20504;-84
2023/03/04 21:35:58;;;;;;;14.87;2.87;;;3.20;99.90;;;;;;4798908;29;20046;-83
2023/03/04 21:44:06;;;;;;;14.53;3.10;;;3.20;99.90;;;;;;5215237;24;20375;-83
2023/03/04 21:47:43;;;;;;;10.17;3.17;;;2.70;99.90;;;;;;5002961;24;20065;-82
2023/03/04 21:51:14;;;;;;;11.00;3.07;;;4.20;99.90;;;;;;4830598;29;20471;-83
2023/03/04 21:54:59;;;;;;;12.77;3.10;;;3.50;99.90;;;;;;4821297;29;20073;-85
2023/03/04 21:58:34;;;;;;;15.70;3.00;;;4.40;99.90;;;;;;4816605;29;20049;-84
2023/03/04 22:01:00;;;;;;;12.93;2.90;;;;;;;;;;4829434;29;20214;-83
2023/03/04 22:03:53;;;;;;;;;;;;;;;;;;;;;
2023/03/04 22:06:32;;;;;;;9.67;2.53;;;2.80;99.90;;;;;;4808372;29;20099;-83
2023/03/04 22:09:02;;;;;;;10.27;2.70;;;3.20;99.90;;;;;;4825711;29;20046;-84
2023/03/04 22:11:43;;;;;;;13.57;2.70;;;2.60;99.90;;;;;;4840091;29;20058;-84
2023/03/04 22:14:34;;;;;;;12.93;2.73;;;3.60;99.90;;;;;;4837898;29;20053;-84
2023/03/04 22:17:24;;;;;;;11.97;2.37;;;3.30;99.90;;;;;;4826717;29;20062;-83
2023/03/04 22:22:47;;;;;;;12.93;2.40;;;2.40;99.90;;;;;;4827469;29;20057;-84
2023/03/04 22:25:15;;;;;;;11.67;2.40;;;2.40;99.90;;;;;;4840913;29;20053;-84
2023/03/04 22:27:50;;;;;;;10.33;2.43;;;3.50;99.90;;;;;;4841308;29;20050;-85
2023/03/04 22:30:16;;;;;;;11.50;2.50;;;3.00;99.90;;;;;;4825382;29;20133;-85
2023/03/04 22:33:00;;;;;;;12.93;2.80;;;3.00;99.90;;;;;;4821194;29;20269;-84
2023/03/04 22:35:29;;;;;;;10.68;2.42;;;2.60;99.90;;;;;;4826059;29;20065;-84
2023/03/04 22:38:17;;;;;;;8.73;2.50;;;3.20;99.90;;;;;;4829755;29;20501;-85
2023/03/04 22:40:43;;;;;;;11.23;2.50;;;3.80;99.90;;;;;;4895752;24;20057;-84
2023/03/04 22:46:48;;;;;;;13.70;2.43;;;3.80;99.90;;;;;;4820127;29;20054;-84
2023/03/04 22:57:16;;;;;;;10.20;2.90;;;2.90;99.90;;;;;;4832978;29;20054;-84
2023/03/04 22:59:54;;;;;;;10.00;2.30;;;3.00;99.90;;;;;;4808300;29;20102;-84
2023/03/04 23:02:41;;;;;;;10.67;2.30;;;2.90;99.90;;;;;;4816135;29;20165;-85
2023/03/04 23:05:24;;;;;;;14.03;2.80;;;2.80;99.90;;;;;;4843483;29;20049;-84
2023/03/04 23:07:50;;;;;;;12.20;3.28;;;3.30;99.90;;;;;;4820307;29;20046;-83
2023/03/04 23:10:25;;;;;;;12.67;3.83;;;3.00;99.90;;;;;;4899954;24;20054;-84
2023/03/04 23:12:53;;;;;;;10.10;2.20;;;2.40;99.90;;;;;;4838395;29;20054;-84
2023/03/04 23:17:58;;;;;;;11.87;2.33;;;2.80;99.90;;;;;;4843666;23;20095;-84
2023/03/04 23:23:06;;;;;;;12.43;2.20;;;2.70;99.90;;;;;;4874925;23;20539;-84
2023/03/04 23:25:52;;;;;;;9.03;2.30;;;3.60;99.90;;;;;;4808490;29;20050;-83
2023/03/04 23:28:43;;;;;;;13.47;2.83;;;3.20;99.90;;;;;;4807850;29;20055;-83
2023/03/04 23:37:56;;;;;;;11.27;2.53;;;3.10;99.90;;;;;;4779882;29;20047;-84
2023/03/04 23:44:22;;;;;;;8.93;2.13;;;2.90;99.90;;;;;;4805983;29;20070;-84
2023/03/04 23:53:51;;;;;;;11.00;2.70;;;2.70;99.90;;;;;;4807800;29;20120;-84
